Time;durP1;ratioP1;P1;durP2;ratioP2;P2;SDS_P1;SDS_P2;PMS_P1;PMS_P2;Temp;Humidity;BMP_temperature;BMP_pressure;BME280_temperature;BME280_humidity;BME280_pressure;Samples;Min_cycle;Max_cycle;Signal;HPM_P1;HPM_P2
2021/10/10 00:00:22;;;;;;;10.27;8.40;;;;;;;;;;5030031;28;20449;-78
2021/10/10 00:02:49;;;;;;;11.80;9.03;;;;;;;;;;5029620;28;20833;-79
2021/10/10 00:05:16;;;;;;;11.47;10.27;;;;;;;;;;5041601;28;20615;-79
2021/10/10 00:07:43;;;;;;;13.90;10.50;;;;;;;;;;5048462;28;20512;-81
2021/10/10 00:10:12;;;;;;;12.60;10.33;;;;;;;;;;5019983;28;20485;-79
2021/10/10 00:12:40;;;;;;;13.53;9.97;;;;;;;;;;5000443;28;20830;-79
2021/10/10 00:15:07;;;;;;;12.60;10.57;;;;;;;;;;5026315;28;20454;-78
2021/10/10 00:17:34;;;;;;;14.80;9.80;;;;;;;;;;5035306;28;20438;-78
2021/10/10 00:20:02;;;;;;;13.13;9.47;;;;;;;;;;5032034;28;20461;-78
2021/10/10 00:22:29;;;;;;;12.10;10.80;;;;;;;;;;5014301;28;20528;-79
2021/10/10 00:24:56;;;;;;;14.30;11.00;;;;;;;;;;5031858;28;20446;-78
2021/10/10 00:27:25;;;;;;;14.20;10.23;;;;;;;;;;5027224;28;20473;-80
2021/10/10 00:29:52;;;;;;;14.30;11.13;;;;;;;;;;5032275;28;20434;-79
2021/10/10 00:32:19;;;;;;;14.23;10.20;;;;;;;;;;5030725;28;20486;-79
2021/10/10 00:34:47;;;;;;;12.80;10.53;;;;;;;;;;5033798;28;20454;-79
2021/10/10 00:37:14;;;;;;;12.53;10.27;;;;;;;;;;5035060;28;20450;-78
2021/10/10 00:39:41;;;;;;;10.80;9.70;;;;;;;;;;5031147;28;20838;-78
2021/10/10 00:42:08;;;;;;;11.13;9.93;;;;;;;;;;5027991;28;20663;-80
2021/10/10 00:44:37;;;;;;;14.73;10.43;;;;;;;;;;5031645;28;20438;-79
2021/10/10 00:47:04;;;;;;;12.47;10.10;;;;;;;;;;5023808;28;20477;-81
2021/10/10 00:49:32;;;;;;;13.10;10.93;;;;;;;;;;5034437;28;21020;-78
2021/10/10 00:52:00;;;;;;;14.87;11.13;;;;;;;;;;5037382;28;21331;-78
2021/10/10 00:54:29;;;;;;;12.30;10.30;;;;;;;;;;5023592;28;20535;-82
2021/10/10 00:56:58;;;;;;;12.67;9.97;;;;;;;;;;5026633;28;20469;-78
2021/10/10 00:59:25;;;;;;;12.43;10.40;;;;;;;;;;5032032;28;20446;-81
2021/10/10 01:01:54;;;;;;;12.87;10.10;;;;;;;;;;5030391;28;20452;-81
2021/10/10 01:04:21;;;;;;;12.50;10.63;;;;;;;;;;5032475;28;20470;-80
2021/10/10 01:06:48;;;;;;;11.03;9.80;;;;;;;;;;5031791;28;20465;-81
2021/10/10 01:09:16;;;;;;;12.73;9.93;;;;;;;;;;5025599;28;20484;-80
2021/10/10 01:11:44;;;;;;;11.37;9.63;;;;;;;;;;5033783;28;20942;-78
2021/10/10 01:14:11;;;;;;;17.13;11.07;;;;;;;;;;5036808;28;20910;-79
2021/10/10 01:16:39;;;;;;;13.87;11.37;;;;;;;;;;5027632;28;20458;-79
2021/10/10 01:19:08;;;;;;;12.83;9.70;;;;;;;;;;5020537;28;20557;-78
2021/10/10 01:21:36;;;;;;;11.43;9.60;;;;;;;;;;5014182;28;20450;-79
2021/10/10 01:24:04;;;;;;;13.80;10.20;;;;;;;;;;5030048;28;20820;-80
2021/10/10 01:26:31;;;;;;;16.00;10.80;;;;;;;;;;5026003;28;20489;-79
2021/10/10 01:28:59;;;;;;;13.00;10.50;;;;;;;;;;5033569;28;21009;-80
2021/10/10 01:31:26;;;;;;;14.37;10.97;;;;;;;;;;5028732;28;20450;-78
2021/10/10 01:33:54;;;;;;;11.03;9.07;;;;;;;;;;5031441;28;20477;-79
2021/10/10 01:36:21;;;;;;;13.27;10.00;;;;;;;;;;5035707;28;20465;-79
2021/10/10 01:38:50;;;;;;;11.50;9.30;;;;;;;;;;5031486;28;20434;-83
2021/10/10 01:41:17;;;;;;;12.57;10.10;;;;;;;;;;5024312;28;20983;-79
2021/10/10 01:43:44;;;;;;;12.43;10.27;;;;;;;;;;5027321;28;21038;-80
2021/10/10 01:46:11;;;;;;;10.70;8.83;;;;;;;;;;5023751;28;20455;-77
2021/10/10 01:48:39;;;;;;;15.33;10.10;;;;;;;;;;5022541;28;20520;-79
2021/10/10 01:51:06;;;;;;;13.60;10.47;;;;;;;;;;5036515;28;20437;-79
2021/10/10 01:53:33;;;;;;;10.87;9.10;;;;;;;;;;5045602;28;20463;-83
2021/10/10 01:56:02;;;;;;;13.77;10.00;;;;;;;;;;5019817;28;20455;-79
2021/10/10 01:58:29;;;;;;;15.15;10.55;;;;;;;;;;5030164;28;20450;-80
2021/10/10 02:00:57;;;;;;;16.33;10.40;;;;;;;;;;5029119;28;20531;-80
2021/10/10 02:03:25;;;;;;;12.10;10.40;;;;;;;;;;5033451;28;20497;-78
2021/10/10 02:05:52;;;;;;;11.50;9.43;;;;;;;;;;5035389;28;20448;-78
2021/10/10 02:08:19;;;;;;;11.63;9.40;;;;;;;;;;5030578;28;20470;-81
2021/10/10 02:10:46;;;;;;;13.60;10.50;;;;;;;;;;5013091;28;20453;-81
2021/10/10 02:13:15;;;;;;;12.23;10.37;;;;;;;;;;5021788;28;20477;-79
2021/10/10 02:15:42;;;;;;;12.27;10.07;;;;;;;;;;5021008;28;20460;-80
2021/10/10 02:18:09;;;;;;;13.53;10.00;;;;;;;;;;5032887;28;20564;-79
2021/10/10 02:20:37;;;;;;;12.37;9.33;;;;;;;;;;5035372;28;21933;-80
2021/10/10 02:23:04;;;;;;;10.77;9.13;;;;;;;;;;5044437;28;21008;-79
2021/10/10 02:25:31;;;;;;;11.60;8.80;;;;;;;;;;5045838;28;20218;-81
2021/10/10 02:27:58;;;;;;;12.53;10.10;;;;;;;;;;5026780;28;20561;-78
2021/10/10 02:30:27;;;;;;;11.70;9.50;;;;;;;;;;5030523;28;20969;-78
2021/10/10 02:32:54;;;;;;;10.17;9.07;;;;;;;;;;5030442;28;20231;-79
2021/10/10 02:35:21;;;;;;;15.10;9.10;;;;;;;;;;5036357;28;20797;-81
2021/10/10 02:37:48;;;;;;;10.87;8.97;;;;;;;;;;5029400;28;20469;-79
2021/10/10 02:40:16;;;;;;;13.87;9.77;;;;;;;;;;5030123;28;20463;-81
2021/10/10 02:42:43;;;;;;;10.57;8.70;;;;;;;;;;5011159;28;20998;-77
2021/10/10 02:45:10;;;;;;;10.95;9.30;;;;;;;;;;5025616;28;20461;-80
2021/10/10 02:47:39;;;;;;;13.13;9.60;;;;;;;;;;5020544;28;20191;-80
2021/10/10 02:50:07;;;;;;;13.20;10.13;;;;;;;;;;5034209;28;20728;-81
2021/10/10 02:52:34;;;;;;;11.67;9.30;;;;;;;;;;5043169;28;20214;-80
2021/10/10 02:55:01;;;;;;;12.90;10.43;;;;;;;;;;5053822;28;20453;-79
2021/10/10 02:57:28;;;;;;;10.77;9.48;;;;;;;;;;5033612;28;20453;-79
2021/10/10 02:59:55;;;;;;;12.52;9.98;;;;;;;;;;5034257;28;20214;-79
2021/10/10 03:02:23;;;;;;;13.30;10.18;;;;;;;;;;5027730;28;20551;-77
2021/10/10 03:04:51;;;;;;;13.17;10.40;;;;;;;;;;5025818;28;20210;-79
2021/10/10 03:07:18;;;;;;;11.88;9.57;;;;;;;;;;5035786;28;20446;-78
2021/10/10 03:09:45;;;;;;;18.40;9.65;;;;;;;;;;5035686;28;20230;-77
2021/10/10 03:12:12;;;;;;;11.70;9.40;;;;;;;;;;5026865;28;20207;-78
2021/10/10 03:14:40;;;;;;;14.63;10.68;;;;;;;;;;5044610;28;20457;-80
2021/10/10 03:17:07;;;;;;;10.13;8.43;;;;;;;;;;5053536;28;20194;-78
2021/10/10 03:19:35;;;;;;;12.95;10.40;;;;;;;;;;5021067;28;20195;-78
2021/10/10 03:22:03;;;;;;;11.50;10.13;;;;;;;;;;5033299;28;20200;-80
2021/10/10 03:24:30;;;;;;;12.82;9.55;;;;;;;;;;5027092;28;20676;-81
2021/10/10 03:26:57;;;;;;;12.80;9.68;;;;;;;;;;5020570;28;20641;-78
2021/10/10 03:29:25;;;;;;;12.13;9.77;;;;;;;;;;5031709;28;20227;-79
2021/10/10 03:31:52;;;;;;;12.63;9.88;;;;;;;;;;5036369;28;20196;-79
2021/10/10 03:34:20;;;;;;;11.52;9.20;;;;;;;;;;5031500;28;20195;-77
2021/10/10 03:36:49;;;;;;;11.00;9.32;;;;;;;;;;5027477;28;20219;-78
2021/10/10 03:39:17;;;;;;;12.45;9.70;;;;;;;;;;5033097;28;20203;-80
2021/10/10 03:41:44;;;;;;;13.07;10.70;;;;;;;;;;5031150;28;20199;-79
2021/10/10 03:44:11;;;;;;;14.07;11.07;;;;;;;;;;5031998;28;20224;-79
2021/10/10 03:46:38;;;;;;;12.90;11.38;;;;;;;;;;5030784;28;20556;-82
2021/10/10 03:49:05;;;;;;;13.75;10.68;;;;;;;;;;5031093;28;20226;-80
2021/10/10 03:51:33;;;;;;;15.25;11.20;;;;;;;;;;5024038;28;20202;-77
2021/10/10 03:56:42;;;;;;;11.80;9.35;;;;;;;;;;5022665;28;20199;-79
2021/10/10 03:59:09;;;;;;;12.73;10.68;;;;;;;;;;5033941;28;20191;-78
2021/10/10 04:01:37;;;;;;;13.85;10.50;;;;;;;;;;5032622;28;20199;-77
2021/10/10 04:04:05;;;;;;;11.70;9.50;;;;;;;;;;5031192;28;20246;-79
2021/10/10 04:06:32;;;;;;;11.88;9.85;;;;;;;;;;5033096;28;20371;-79
2021/10/10 04:08:59;;;;;;;15.32;10.10;;;;;;;;;;5018826;28;20227;-77
2021/10/10 04:11:26;;;;;;;11.10;9.65;;;;;;;;;;5021324;28;20210;-79
2021/10/10 04:13:55;;;;;;;12.82;10.20;;;;;;;;;;5030618;28;20219;-78
2021/10/10 04:16:23;;;;;;;12.48;10.57;;;;;;;;;;5036485;28;20198;-78
2021/10/10 04:18:50;;;;;;;12.75;10.30;;;;;;;;;;5029838;28;20847;-79
2021/10/10 04:21:17;;;;;;;14.05;11.60;;;;;;;;;;5020531;28;20570;-78
2021/10/10 04:23:44;;;;;;;12.27;9.82;;;;;;;;;;5023333;28;20219;-78
2021/10/10 04:26:11;;;;;;;12.98;10.55;;;;;;;;;;5032449;28;20199;-79
2021/10/10 04:28:38;;;;;;;17.77;11.65;;;;;;;;;;5031297;28;20199;-80
2021/10/10 04:31:07;;;;;;;16.15;10.63;;;;;;;;;;5033073;28;20195;-77
2021/10/10 04:33:34;;;;;;;11.40;10.20;;;;;;;;;;5034335;28;20207;-79
2021/10/10 04:36:01;;;;;;;12.45;10.60;;;;;;;;;;5034441;28;20201;-78
2021/10/10 04:38:28;;;;;;;12.77;10.77;;;;;;;;;;5036011;28;20193;-78
2021/10/10 04:40:55;;;;;;;13.63;10.88;;;;;;;;;;5031839;28;20215;-78
2021/10/10 04:43:23;;;;;;;15.90;12.13;;;;;;;;;;5031418;28;20225;-77
2021/10/10 04:45:50;;;;;;;16.58;11.68;;;;;;;;;;5029353;28;20199;-76
2021/10/10 04:48:18;;;;;;;14.95;11.15;;;;;;;;;;5024289;28;20191;-77
2021/10/10 04:50:45;;;;;;;13.68;10.18;;;;;;;;;;5032158;28;20199;-79
2021/10/10 04:53:12;;;;;;;14.25;12.40;;;;;;;;;;5029470;28;20226;-78
2021/10/10 04:55:40;;;;;;;14.90;12.02;;;;;;;;;;5026968;28;20202;-79
2021/10/10 04:58:07;;;;;;;14.45;10.35;;;;;;;;;;5031329;28;20195;-78
2021/10/10 05:00:34;;;;;;;12.95;11.40;;;;;;;;;;5029494;28;20230;-78
2021/10/10 05:03:01;;;;;;;13.05;10.80;;;;;;;;;;5031735;28;20582;-78
2021/10/10 05:05:30;;;;;;;18.40;11.73;;;;;;;;;;5022014;28;20203;-79
2021/10/10 05:07:57;;;;;;;15.13;12.15;;;;;;;;;;5035242;28;20191;-77
2021/10/10 05:10:24;;;;;;;12.88;10.73;;;;;;;;;;5040858;28;20182;-78
2021/10/10 05:12:51;;;;;;;13.52;11.77;;;;;;;;;;5025067;28;20582;-78
2021/10/10 05:15:19;;;;;;;16.88;11.68;;;;;;;;;;5027032;28;20593;-79
2021/10/10 05:17:46;;;;;;;15.75;11.48;;;;;;;;;;5031423;28;20202;-78
2021/10/10 05:20:13;;;;;;;13.82;11.50;;;;;;;;;;5023445;28;20231;-78
2021/10/10 05:22:42;;;;;;;14.48;11.45;;;;;;;;;;5028567;28;20211;-77
2021/10/10 05:25:09;;;;;;;12.75;11.27;;;;;;;;;;5041359;28;20252;-79
2021/10/10 05:27:36;;;;;;;17.92;12.05;;;;;;;;;;5043959;28;20195;-80
2021/10/10 05:30:04;;;;;;;13.35;10.57;;;;;;;;;;5031138;28;20206;-77
2021/10/10 05:32:32;;;;;;;17.02;11.60;;;;;;;;;;5013619;28;20216;-78
2021/10/10 05:34:59;;;;;;;15.68;11.80;;;;;;;;;;5026354;28;20672;-78
2021/10/10 05:37:26;;;;;;;14.23;11.02;;;;;;;;;;5034260;28;20206;-80
2021/10/10 05:39:55;;;;;;;16.35;12.10;;;;;;;;;;5014762;28;20223;-79
2021/10/10 05:42:22;;;;;;;15.00;11.55;;;;;;;;;;5030886;28;20219;-79
2021/10/10 05:44:49;;;;;;;14.52;12.27;;;;;;;;;;5020678;28;20199;-78
2021/10/10 05:47:16;;;;;;;15.23;11.82;;;;;;;;;;5028083;28;20569;-77
2021/10/10 05:49:43;;;;;;;14.20;10.25;;;;;;;;;;5025559;28;20195;-77
2021/10/10 05:52:10;;;;;;;13.82;11.05;;;;;;;;;;5025946;28;20198;-79
2021/10/10 05:54:39;;;;;;;12.75;10.48;;;;;;;;;;5040931;28;20277;-79
2021/10/10 05:57:09;;;;;;;15.63;11.05;;;;;;;;;;5024747;28;20214;-79
2021/10/10 05:59:38;;;;;;;14.48;11.30;;;;;;;;;;5030767;28;20211;-78
2021/10/10 06:02:05;;;;;;;15.80;11.35;;;;;;;;;;5029695;28;20195;-79
2021/10/10 06:04:32;;;;;;;13.18;10.30;;;;;;;;;;5026610;28;20238;-80
2021/10/10 06:06:59;;;;;;;13.60;10.75;;;;;;;;;;5017707;28;20211;-80
2021/10/10 06:09:27;;;;;;;17.70;13.07;;;;;;;;;;5022048;28;20695;-77
2021/10/10 06:11:54;;;;;;;16.02;11.40;;;;;;;;;;5020630;28;20641;-78
2021/10/10 06:14:22;;;;;;;16.52;11.52;;;;;;;;;;5034764;28;20225;-77
2021/10/10 06:16:49;;;;;;;15.70;12.70;;;;;;;;;;5028464;28;20199;-77
2021/10/10 06:19:17;;;;;;;16.95;11.70;;;;;;;;;;5033572;28;20198;-79
2021/10/10 06:21:44;;;;;;;15.05;10.65;;;;;;;;;;5030834;28;20188;-77
2021/10/10 06:24:11;;;;;;;13.95;11.25;;;;;;;;;;5029037;28;20212;-79
2021/10/10 06:26:38;;;;;;;14.75;12.00;;;;;;;;;;5030282;28;20654;-80
2021/10/10 06:29:05;;;;;;;12.65;11.30;;;;;;;;;;5019191;28;20184;-77
2021/10/10 06:31:34;;;;;;;14.88;12.00;;;;;;;;;;5033917;28;20199;-78
2021/10/10 06:34:01;;;;;;;14.93;11.77;;;;;;;;;;5036891;28;20216;-80
2021/10/10 06:36:28;;;;;;;13.75;11.20;;;;;;;;;;5037153;28;20206;-77
2021/10/10 06:38:55;;;;;;;12.43;11.13;;;;;;;;;;5043757;28;20195;-78
2021/10/10 06:41:23;;;;;;;14.77;11.43;;;;;;;;;;5039853;28;20242;-77
2021/10/10 06:43:51;;;;;;;15.95;12.25;;;;;;;;;;5033751;28;20250;-79
2021/10/10 06:46:18;;;;;;;15.98;11.38;;;;;;;;;;5032225;28;20191;-76
2021/10/10 06:48:46;;;;;;;15.38;12.40;;;;;;;;;;5030084;28;20203;-77
2021/10/10 06:51:13;;;;;;;16.95;12.30;;;;;;;;;;5031821;28;20199;-81
2021/10/10 06:53:40;;;;;;;14.65;11.32;;;;;;;;;;5028784;28;20216;-78
2021/10/10 06:56:08;;;;;;;16.10;11.23;;;;;;;;;;5023611;28;20199;-79
2021/10/10 06:58:35;;;;;;;17.83;12.83;;;;;;;;;;5027274;28;20537;-78
2021/10/10 07:01:02;;;;;;;13.95;12.02;;;;;;;;;;5030861;28;20489;-78
2021/10/10 07:03:29;;;;;;;15.13;12.20;;;;;;;;;;5033848;28;20218;-78
2021/10/10 07:05:57;;;;;;;15.10;11.30;;;;;;;;;;5026166;28;20465;-78
2021/10/10 07:08:25;;;;;;;15.47;11.40;;;;;;;;;;5026752;28;20957;-77
2021/10/10 07:10:52;;;;;;;15.10;12.80;;;;;;;;;;5027224;28;20468;-76
2021/10/10 07:13:19;;;;;;;16.30;11.97;;;;;;;;;;5033287;28;20474;-76
2021/10/10 07:15:46;;;;;;;14.20;10.77;;;;;;;;;;5021436;28;20465;-77
2021/10/10 07:18:15;;;;;;;16.67;11.57;;;;;;;;;;5032752;28;20466;-77
2021/10/10 07:20:52;;;;;;;15.40;11.63;;;;;;;;;;5015223;28;20490;-78
2021/10/10 07:23:31;;;;;;;16.13;11.43;;;;;;;;;;5020675;28;20474;-77
2021/10/10 07:25:59;;;;;;;14.37;11.20;;;;;;;;;;5024944;28;20490;-80
2021/10/10 07:28:26;;;;;;;15.87;11.40;;;;;;;;;;5020834;28;20444;-81
2021/10/10 07:30:54;;;;;;;15.50;11.30;;;;;;;;;;5036429;28;20445;-83
2021/10/10 07:33:21;;;;;;;14.97;11.77;;;;;;;;;;5008850;28;20520;-77
2021/10/10 07:35:49;;;;;;;12.67;11.07;;;;;;;;;;5015757;28;20438;-77
2021/10/10 07:38:16;;;;;;;13.67;11.30;;;;;;;;;;5031489;28;20461;-78
2021/10/10 07:40:44;;;;;;;16.93;12.37;;;;;;;;;;5018446;28;20474;-81
2021/10/10 07:43:11;;;;;;;16.20;12.70;;;;;;;;;;5025931;28;20470;-79
2021/10/10 07:45:42;;;;;;;13.73;11.53;;;;;;;;;;5034182;28;20442;-83
2021/10/10 07:48:09;;;;;;;15.57;12.00;;;;;;;;;;5033051;28;20701;-79
2021/10/10 07:50:36;;;;;;;14.67;11.47;;;;;;;;;;5024364;28;20464;-79
2021/10/10 07:53:04;;;;;;;13.90;11.60;;;;;;;;;;5038691;28;20469;-78
2021/10/10 07:55:31;;;;;;;15.50;12.90;;;;;;;;;;5037726;28;20458;-79
2021/10/10 07:58:00;;;;;;;14.47;11.80;;;;;;;;;;5030638;28;20509;-77
2021/10/10 08:00:30;;;;;;;17.40;12.20;;;;;;;;;;5025614;28;20804;-77
2021/10/10 08:02:58;;;;;;;13.90;10.83;;;;;;;;;;5021568;28;20506;-77
2021/10/10 08:05:26;;;;;;;16.47;11.50;;;;;;;;;;5016133;28;20927;-80
2021/10/10 08:07:54;;;;;;;14.37;11.07;;;;;;;;;;5037947;28;20430;-79
2021/10/10 08:10:22;;;;;;;19.23;12.53;;;;;;;;;;5029538;28;20469;-78
2021/10/10 08:12:49;;;;;;;16.60;11.83;;;;;;;;;;5012066;28;20497;-79
2021/10/10 08:15:18;;;;;;;15.60;12.27;;;;;;;;;;5015340;28;20955;-78
2021/10/10 08:17:45;;;;;;;14.30;11.60;;;;;;;;;;5025798;28;20450;-80
2021/10/10 08:20:13;;;;;;;13.73;11.87;;;;;;;;;;5023807;28;20474;-78
2021/10/10 08:22:40;;;;;;;15.70;12.63;;;;;;;;;;5028563;28;20492;-79
2021/10/10 08:25:11;;;;;;;18.57;12.10;;;;;;;;;;5029339;28;20975;-79
2021/10/10 08:27:38;;;;;;;13.17;11.57;;;;;;;;;;5050936;28;20436;-78
2021/10/10 08:30:06;;;;;;;15.17;13.10;;;;;;;;;;5013187;28;20446;-77
2021/10/10 08:32:35;;;;;;;13.50;11.00;;;;;;;;;;5000510;28;20481;-78
2021/10/10 08:35:02;;;;;;;14.97;11.83;;;;;;;;;;5015520;28;20447;-78
2021/10/10 08:37:30;;;;;;;17.60;13.30;;;;;;;;;;5030796;28;20462;-77
2021/10/10 08:39:57;;;;;;;15.40;12.60;;;;;;;;;;5004978;28;20462;-79
2021/10/10 08:42:28;;;;;;;14.30;12.00;;;;;;;;;;5029188;28;20851;-78
2021/10/10 08:45:02;;;;;;;14.87;12.10;;;;;;;;;;5007222;28;20484;-83
2021/10/10 08:47:31;;;;;;;15.37;12.80;;;;;;;;;;5025921;28;20457;-81
2021/10/10 08:50:00;;;;;;;14.47;11.53;;;;;;;;;;5030195;28;20880;-78
2021/10/10 08:52:27;;;;;;;16.80;11.77;;;;;;;;;;5033493;28;20531;-79
2021/10/10 08:54:54;;;;;;;17.10;12.10;;;;;;;;;;5026291;28;20442;-77
2021/10/10 08:57:22;;;;;;;13.50;12.07;;;;;;;;;;5024308;28;20458;-78
2021/10/10 08:59:54;;;;;;;14.73;11.57;;;;;;;;;;5016362;28;20827;-81
2021/10/10 09:02:25;;;;;;;13.77;11.50;;;;;;;;;;5018226;28;20481;-80
2021/10/10 09:04:52;;;;;;;16.87;12.13;;;;;;;;;;5023616;28;20972;-80
2021/10/10 09:07:21;;;;;;;14.60;12.07;;;;;;;;;;5028439;28;20480;-77
2021/10/10 09:09:48;;;;;;;14.50;12.53;;;;;;;;;;5032083;28;20804;-79
2021/10/10 09:12:16;;;;;;;15.30;13.13;;;;;;;;;;5026595;28;20564;-81
2021/10/10 09:14:44;;;;;;;16.40;13.87;;;;;;;;;;5026355;28;20477;-78
2021/10/10 09:17:12;;;;;;;15.43;12.90;;;;;;;;;;5030789;28;20438;-78
2021/10/10 09:19:39;;;;;;;13.83;11.77;;;;;;;;;;5012278;28;20882;-79
2021/10/10 09:22:11;;;;;;;14.50;12.27;;;;;;;;;;5030240;28;21016;-81
2021/10/10 09:24:39;;;;;;;18.13;12.40;;;;;;;;;;5020996;28;20550;-79
2021/10/10 09:27:07;;;;;;;14.13;12.00;;;;;;;;;;5020004;28;20446;-78
2021/10/10 09:29:35;;;;;;;13.33;10.80;;;;;;;;;;5026181;28;20462;-82
2021/10/10 09:32:04;;;;;;;14.43;12.23;;;;;;;;;;5032861;28;20438;-82
2021/10/10 09:34:31;;;;;;;20.00;14.17;;;;;;;;;;5017852;28;20959;-80
2021/10/10 09:37:00;;;;;;;15.70;12.60;;;;;;;;;;5029424;28;20448;-81
2021/10/10 09:39:35;;;;;;;15.03;12.60;;;;;;;;;;5023817;28;20545;-79
2021/10/10 09:42:04;;;;;;;21.90;13.20;;;;;;;;;;5000118;28;21164;-82
2021/10/10 09:44:44;;;;;;;18.20;12.57;;;;;;;;;;5026609;28;20538;-80
2021/10/10 09:47:13;;;;;;;16.30;13.03;;;;;;;;;;5004654;28;20525;-79
2021/10/10 09:49:40;;;;;;;16.20;13.20;;;;;;;;;;5017868;28;20938;-78
2021/10/10 09:52:12;;;;;;;15.40;12.63;;;;;;;;;;5031155;28;20959;-78
2021/10/10 09:54:48;;;;;;;13.20;10.70;;;;;;;;;;5040227;28;20855;-80
2021/10/10 09:57:16;;;;;;;15.27;12.17;;;;;;;;;;5023977;28;20461;-78
2021/10/10 09:59:43;;;;;;;19.70;12.20;;;;;;;;;;5031954;28;20469;-80
2021/10/10 10:02:11;;;;;;;17.97;11.90;;;;;;;;;;5033448;28;20990;-80
2021/10/10 10:04:46;;;;;;;15.60;11.50;;;;;;;;;;5017551;28;20462;-81
2021/10/10 10:07:14;;;;;;;12.93;11.50;;;;;;;;;;5018805;28;20457;-80
2021/10/10 10:09:41;;;;;;;14.37;11.47;;;;;;;;;;5037365;28;20835;-78
2021/10/10 10:12:09;;;;;;;13.87;11.00;;;;;;;;;;5032573;28;20454;-79
2021/10/10 10:14:37;;;;;;;12.80;10.63;;;;;;;;;;5034420;28;20466;-80
2021/10/10 10:17:05;;;;;;;15.47;10.80;;;;;;;;;;5031263;28;20822;-77
2021/10/10 10:19:35;;;;;;;12.90;10.93;;;;;;;;;;5026539;28;20461;-77
2021/10/10 10:22:03;;;;;;;13.67;11.67;;;;;;;;;;5042031;28;20522;-78
2021/10/10 10:24:30;;;;;;;11.17;9.90;;;;;;;;;;5035188;28;20943;-79
2021/10/10 10:26:58;;;;;;;10.63;8.97;;;;;;;;;;5023888;28;20449;-78
2021/10/10 10:29:27;;;;;;;12.30;10.07;;;;;;;;;;5016694;28;20838;-79
2021/10/10 10:31:56;;;;;;;13.10;10.93;;;;;;;;;;5034306;28;20443;-80
2021/10/10 10:36:51;;;;;;;11.13;9.60;;;;;;;;;;5039580;28;20447;-80
2021/10/10 10:39:33;;;;;;;12.43;10.50;;;;;;;;;;5035102;28;20198;-82
2021/10/10 10:42:00;;;;;;;11.17;9.70;;;;;;;;;;5026373;28;20487;-82
2021/10/10 10:44:34;;;;;;;12.30;10.67;;;;;;;;;;5034466;28;20456;-77
2021/10/10 10:47:03;;;;;;;11.80;9.57;;;;;;;;;;5032316;28;20456;-77
2021/10/10 10:49:45;;;;;;;12.50;9.90;;;;;;;;;;5037472;28;20472;-79
2021/10/10 10:52:27;;;;;;;10.77;9.57;;;;;;;;;;5036834;28;20461;-79
2021/10/10 10:54:55;;;;;;;15.07;11.40;;;;;;;;;;5023348;28;20469;-80
2021/10/10 10:57:30;;;;;;;13.20;9.70;;;;;;;;;;5033755;28;20460;-78
2021/10/10 10:59:59;;;;;;;11.23;10.00;;;;;;;;;;5027848;28;20463;-79
2021/10/10 11:02:48;;;;;;;12.20;10.10;;;;;;;;;;5026180;28;20500;-78
2021/10/10 11:05:31;;;;;;;10.87;8.40;;;;;;;;;;5035642;28;20464;-77
2021/10/10 11:07:58;;;;;;;11.70;10.10;;;;;;;;;;5037165;28;20467;-80
2021/10/10 11:10:25;;;;;;;11.10;8.60;;;;;;;;;;5029317;28;20464;-80
2021/10/10 11:12:53;;;;;;;13.47;10.70;;;;;;;;;;5028719;28;20488;-78
2021/10/10 11:15:21;;;;;;;11.87;10.30;;;;;;;;;;5033753;28;20448;-78
2021/10/10 11:17:56;;;;;;;13.73;10.93;;;;;;;;;;5026747;28;22740;-80
2021/10/10 11:20:23;;;;;;;14.07;9.83;;;;;;;;;;5038180;28;20511;-79
2021/10/10 11:22:50;;;;;;;9.77;8.77;;;;;;;;;;5037960;28;20500;-79
2021/10/10 11:25:17;;;;;;;9.47;8.47;;;;;;;;;;5022402;28;20477;-79
2021/10/10 11:27:49;;;;;;;10.70;9.23;;;;;;;;;;5030246;28;20831;-80
2021/10/10 11:30:16;;;;;;;10.93;9.00;;;;;;;;;;5033271;28;20452;-79
2021/10/10 11:32:51;;;;;;;12.10;10.87;;;;;;;;;;5024672;28;20486;-79
2021/10/10 11:35:27;;;;;;;12.93;8.80;;;;;;;;;;5039220;28;20795;-80
2021/10/10 11:38:02;;;;;;;11.30;9.70;;;;;;;;;;5028309;28;20444;-82
2021/10/10 11:40:30;;;;;;;10.67;9.60;;;;;;;;;;5031884;28;20815;-81
2021/10/10 11:42:58;;;;;;;10.17;8.63;;;;;;;;;;5015247;28;20493;-81
2021/10/10 11:45:26;;;;;;;10.13;8.53;;;;;;;;;;5013582;28;20460;-80
2021/10/10 11:47:54;;;;;;;10.33;9.30;;;;;;;;;;5029069;28;20460;-80
2021/10/10 11:50:21;;;;;;;9.83;8.83;;;;;;;;;;5032926;28;20461;-78
2021/10/10 11:52:57;;;;;;;10.20;8.27;;;;;;;;;;5033257;28;20478;-82
2021/10/10 11:55:32;;;;;;;11.67;9.13;;;;;;;;;;5032942;28;20454;-77
2021/10/10 11:58:01;;;;;;;11.53;9.83;;;;;;;;;;5033469;28;20462;-83
2021/10/10 12:00:28;;;;;;;10.10;9.20;;;;;;;;;;5032320;28;20427;-79
2021/10/10 12:03:04;;;;;;;10.57;9.20;;;;;;;;;;5002806;28;20493;-81
2021/10/10 12:05:39;;;;;;;12.63;8.93;;;;;;;;;;5035577;28;20525;-80
2021/10/10 12:08:18;;;;;;;10.50;8.63;;;;;;;;;;5027736;28;20499;-83
2021/10/10 12:10:48;;;;;;;10.50;8.60;;;;;;;;;;5021173;28;20457;-83
2021/10/10 12:13:15;;;;;;;12.10;8.40;;;;;;;;;;5028648;28;20475;-77
2021/10/10 12:15:43;;;;;;;10.10;8.17;;;;;;;;;;5027163;28;20458;-81
2021/10/10 12:18:12;;;;;;;9.70;8.67;;;;;;;;;;5027536;28;20433;-77
2021/10/10 12:20:39;;;;;;;11.60;8.03;;;;;;;;;;5034592;28;20464;-75
2021/10/10 12:23:09;;;;;;;10.83;8.10;;;;;;;;;;5023460;28;20580;-77
2021/10/10 12:25:38;;;;;;;10.70;8.17;;;;;;;;;;5011384;28;20450;-78
2021/10/10 12:28:06;;;;;;;11.90;8.13;;;;;;;;;;5027845;28;20413;-77
2021/10/10 12:30:36;;;;;;;10.60;8.17;;;;;;;;;;5006257;28;20441;-79
2021/10/10 12:33:18;;;;;;;9.33;8.03;;;;;;;;;;5023609;28;20505;-79
2021/10/10 12:35:52;;;;;;;9.67;7.67;;;;;;;;;;5012182;28;20453;-76
2021/10/10 12:38:27;;;;;;;12.00;8.50;;;;;;;;;;5025779;28;20431;-79
2021/10/10 12:40:56;;;;;;;8.40;7.40;;;;;;;;;;5028741;28;20481;-78
2021/10/10 12:43:33;;;;;;;12.30;8.77;;;;;;;;;;5020657;28;20475;-78
2021/10/10 12:46:02;;;;;;;12.00;9.30;;;;;;;;;;5027310;28;20515;-80
2021/10/10 12:48:29;;;;;;;13.23;8.40;;;;;;;;;;5017866;28;20433;-77
2021/10/10 12:50:57;;;;;;;12.00;8.73;;;;;;;;;;5030836;28;20452;-78
2021/10/10 12:53:25;;;;;;;8.30;7.10;;;;;;;;;;5030178;28;20469;-79
2021/10/10 12:56:07;;;;;;;11.30;7.50;;;;;;;;;;5024188;28;20436;-81
2021/10/10 12:58:46;;;;;;;10.17;7.40;;;;;;;;;;5011593;28;20469;-80
2021/10/10 13:01:13;;;;;;;7.97;6.93;;;;;;;;;;5023119;28;20461;-78
2021/10/10 13:03:40;;;;;;;8.63;6.77;;;;;;;;;;5028317;28;20523;-77
2021/10/10 13:06:07;;;;;;;11.80;9.27;;;;;;;;;;5017655;28;20462;-82
2021/10/10 13:08:45;;;;;;;9.30;8.23;;;;;;;;;;5027229;28;20458;-82
2021/10/10 13:11:12;;;;;;;10.70;8.60;;;;;;;;;;5025600;28;20457;-80
2021/10/10 13:13:40;;;;;;;9.00;8.10;;;;;;;;;;5029995;28;20476;-79
2021/10/10 13:16:08;;;;;;;11.87;8.27;;;;;;;;;;5028246;28;20462;-78
2021/10/10 13:18:36;;;;;;;10.87;7.23;;;;;;;;;;5014070;28;20415;-80
2021/10/10 13:21:03;;;;;;;11.47;7.33;;;;;;;;;;5032533;28;20457;-78
2021/10/10 13:23:30;;;;;;;9.03;6.43;;;;;;;;;;5044397;28;20538;-80
2021/10/10 13:25:59;;;;;;;6.83;6.10;;;;;;;;;;5048331;28;20456;-79
2021/10/10 13:28:26;;;;;;;8.10;5.90;;;;;;;;;;5026227;28;21036;-77
2021/10/10 13:30:58;;;;;;;7.97;6.40;;;;;;;;;;5028480;28;20441;-78
2021/10/10 13:33:27;;;;;;;11.37;6.60;;;;;;;;;;5020228;28;20917;-78
2021/10/10 13:35:54;;;;;;;7.70;6.80;;;;;;;;;;5008314;28;20450;-80
2021/10/10 13:38:22;;;;;;;7.17;6.27;;;;;;;;;;5039045;28;20441;-78
2021/10/10 13:40:49;;;;;;;12.57;7.40;;;;;;;;;;5032879;28;20465;-76
2021/10/10 13:43:17;;;;;;;7.20;6.40;;;;;;;;;;5025202;28;20497;-80
2021/10/10 13:45:44;;;;;;;7.67;6.17;;;;;;;;;;5025769;28;20449;-80
2021/10/10 13:48:12;;;;;;;9.47;6.20;;;;;;;;;;5019983;28;20504;-78
2021/10/10 13:50:40;;;;;;;9.10;6.67;;;;;;;;;;5026965;28;20488;-82
2021/10/10 13:53:07;;;;;;;7.60;6.53;;;;;;;;;;5039711;28;20427;-79
2021/10/10 13:55:34;;;;;;;9.30;7.00;;;;;;;;;;5033930;28;20867;-83
2021/10/10 13:58:02;;;;;;;5.90;5.20;;;;;;;;;;5022625;28;20462;-80
2021/10/10 14:00:29;;;;;;;6.70;6.00;;;;;;;;;;5027778;28;20445;-77
2021/10/10 14:02:56;;;;;;;7.43;5.93;;;;;;;;;;5025912;28;20494;-80
2021/10/10 14:05:24;;;;;;;9.40;6.43;;;;;;;;;;5031776;28;20463;-79
2021/10/10 14:07:52;;;;;;;9.53;6.23;;;;;;;;;;5031434;28;20461;-79
2021/10/10 14:10:19;;;;;;;6.10;5.50;;;;;;;;;;5020204;28;20458;-85
2021/10/10 14:12:46;;;;;;;7.57;6.23;;;;;;;;;;5017449;28;21251;-82
2021/10/10 14:15:14;;;;;;;6.47;5.87;;;;;;;;;;5014443;28;20860;-78
2021/10/10 14:17:41;;;;;;;7.50;5.77;;;;;;;;;;4994155;28;20458;-77
2021/10/10 14:20:09;;;;;;;11.17;6.10;;;;;;;;;;5027183;28;20852;-78
2021/10/10 14:22:36;;;;;;;7.07;6.10;;;;;;;;;;5032422;28;22273;-78
2021/10/10 14:25:04;;;;;;;8.50;6.17;;;;;;;;;;5025687;28;20462;-81
2021/10/10 14:27:32;;;;;;;8.63;6.30;;;;;;;;;;5026871;28;20981;-79
2021/10/10 14:29:59;;;;;;;7.20;5.50;;;;;;;;;;5025570;28;21006;-78
2021/10/10 14:32:26;;;;;;;6.33;5.73;;;;;;;;;;5027422;28;20473;-78
2021/10/10 14:34:54;;;;;;;6.80;5.73;;;;;;;;;;5005175;28;20513;-78